SWA2990 KDAL-KMSY
Flight info
| Callsign | SWA2990 |
|---|---|
| Flight time | 0h 57m |
| Altitude | 37000 |
| Route | LNDRE5 ZALEA SWEUP LSU AWDAD1 |
| Aircraft | B738/M-SDE2E3FGHIRWXY/LB1 |
Departure
| Time | 2026-04-28 14:01 |
|---|---|
| Airport | Dallas Love Field (KDAL) |
Arrival
| Time | 2026-04-28 14:59 |
|---|---|
| Airport | Louis Armstrong New Orleans International Airport (KMSY) |
| Time | Latitude | Longitude | Altitude | Speed | Heading |
|---|---|---|---|---|---|
| 2026-04-28 13:41 | 32.84564 | -96.85193 | 483 ft | 0 kts | 33° |
| 2026-04-28 13:50 | 32.84546 | -96.85207 | 479 ft | 4 kts | 26° |
| 2026-04-28 13:51 | 32.84522 | -96.85215 | 477 ft | 4 kts | 348° |
| 2026-04-28 13:51 | 32.84512 | -96.85208 | 476 ft | 1 kts | 272° |
| 2026-04-28 13:51 | 32.84512 | -96.85207 | 476 ft | 1 kts | 272° |
| 2026-04-28 13:56 | 32.84512 | -96.85208 | 476 ft | 2 kts | 272° |
| 2026-04-28 13:56 | 32.84520 | -96.85308 | 476 ft | 15 kts | 295° |
| 2026-04-28 13:57 | 32.84613 | -96.85334 | 483 ft | 15 kts | 6° |
| 2026-04-28 13:57 | 32.84711 | -96.85322 | 480 ft | 14 kts | 6° |
| 2026-04-28 13:57 | 32.84805 | -96.85312 | 478 ft | 13 kts | 5° |
| 2026-04-28 13:57 | 32.84893 | -96.85289 | 480 ft | 13 kts | 14° |
| 2026-04-28 13:58 | 32.84978 | -96.85262 | 476 ft | 12 kts | 15° |
| 2026-04-28 13:58 | 32.85062 | -96.85239 | 481 ft | 12 kts | 2° |
| 2026-04-28 13:58 | 32.85129 | -96.85286 | 483 ft | 11 kts | 317° |
| 2026-04-28 13:58 | 32.85186 | -96.85348 | 483 ft | 11 kts | 317° |
| 2026-04-28 13:59 | 32.85245 | -96.85402 | 483 ft | 11 kts | 327° |
| 2026-04-28 13:59 | 32.85302 | -96.85462 | 483 ft | 13 kts | 315° |
| 2026-04-28 13:59 | 32.85381 | -96.85551 | 483 ft | 18 kts | 317° |
| 2026-04-28 13:59 | 32.85476 | -96.85657 | 483 ft | 19 kts | 316° |
| 2026-04-28 14:00 | 32.85570 | -96.85764 | 483 ft | 18 kts | 316° |
| 2026-04-28 14:00 | 32.85667 | -96.85734 | 482 ft | 18 kts | 47° |
| 2026-04-28 14:00 | 32.85677 | -96.85619 | 482 ft | 16 kts | 136° |
| 2026-04-28 14:00 | 32.85591 | -96.85521 | 482 ft | 27 kts | 136° |
| 2026-04-28 14:01 | 32.85272 | -96.85152 | 483 ft | 100 kts | 135° |
| 2026-04-28 14:01 | 32.84618 | -96.84398 | 492 ft | 160 kts | 136° |
| 2026-04-28 14:01 | 32.83798 | -96.83383 | 1023 ft | 171 kts | 130° |
| 2026-04-28 14:01 | 32.82981 | -96.82397 | 1906 ft | 167 kts | 140° |
| 2026-04-28 14:02 | 32.82074 | -96.81489 | 2548 ft | 180 kts | 141° |
| 2026-04-28 14:02 | 32.81035 | -96.80435 | 2840 ft | 211 kts | 140° |
| 2026-04-28 14:02 | 32.79863 | -96.79219 | 3084 ft | 234 kts | 139° |
| 2026-04-28 14:02 | 32.78604 | -96.77893 | 3451 ft | 253 kts | 139° |
| 2026-04-28 14:03 | 32.77251 | -96.76459 | 3993 ft | 266 kts | 139° |
| 2026-04-28 14:03 | 32.75864 | -96.74980 | 4873 ft | 268 kts | 138° |
| 2026-04-28 14:03 | 32.74507 | -96.73442 | 5754 ft | 271 kts | 136° |
| 2026-04-28 14:03 | 32.73152 | -96.71863 | 6585 ft | 275 kts | 136° |
| 2026-04-28 14:04 | 32.71778 | -96.70265 | 7406 ft | 278 kts | 136° |
| 2026-04-28 14:04 | 32.70391 | -96.68641 | 8219 ft | 282 kts | 135° |
| 2026-04-28 14:04 | 32.69045 | -96.66933 | 8998 ft | 286 kts | 124° |
| 2026-04-28 14:04 | 32.68299 | -96.64740 | 9765 ft | 290 kts | 99° |
| 2026-04-28 14:05 | 32.68179 | -96.62332 | 10444 ft | 299 kts | 91° |
| 2026-04-28 14:05 | 32.68159 | -96.59763 | 10637 ft | 324 kts | 91° |
| 2026-04-28 14:05 | 32.68131 | -96.57022 | 11065 ft | 338 kts | 91° |
| 2026-04-28 14:05 | 32.68087 | -96.54204 | 11740 ft | 343 kts | 91° |
| 2026-04-28 14:06 | 32.68156 | -96.51358 | 12511 ft | 346 kts | 86° |
| 2026-04-28 14:06 | 32.68392 | -96.48502 | 13279 ft | 350 kts | 84° |
| 2026-04-28 14:06 | 32.68667 | -96.45613 | 14033 ft | 354 kts | 84° |
| 2026-04-28 14:06 | 32.68933 | -96.42694 | 14787 ft | 358 kts | 84° |
| 2026-04-28 14:07 | 32.69181 | -96.39737 | 15544 ft | 362 kts | 85° |
| 2026-04-28 14:07 | 32.69417 | -96.36745 | 16285 ft | 366 kts | 85° |
| 2026-04-28 14:07 | 32.69649 | -96.33727 | 16995 ft | 370 kts | 86° |
| 2026-04-28 14:07 | 32.69681 | -96.30662 | 17680 ft | 373 kts | 93° |
| 2026-04-28 14:08 | 32.69491 | -96.27573 | 18362 ft | 377 kts | 95° |
| 2026-04-28 14:08 | 32.69232 | -96.24459 | 19023 ft | 381 kts | 96° |
| 2026-04-28 14:08 | 32.68966 | -96.21311 | 19666 ft | 385 kts | 96° |
| 2026-04-28 14:08 | 32.68713 | -96.18136 | 20300 ft | 389 kts | 95° |
| 2026-04-28 14:09 | 32.68474 | -96.14929 | 20902 ft | 392 kts | 95° |
| 2026-04-28 14:09 | 32.68246 | -96.11687 | 21491 ft | 396 kts | 95° |
| 2026-04-28 14:09 | 32.68022 | -96.08413 | 22060 ft | 399 kts | 95° |
| 2026-04-28 14:09 | 32.67800 | -96.05119 | 22611 ft | 403 kts | 95° |
| 2026-04-28 14:10 | 32.67575 | -96.01788 | 23148 ft | 406 kts | 95° |
| 2026-04-28 14:10 | 32.67349 | -95.98435 | 23670 ft | 410 kts | 95° |
| 2026-04-28 14:10 | 32.67119 | -95.95048 | 24180 ft | 413 kts | 95° |
| 2026-04-28 14:10 | 32.66886 | -95.91646 | 24674 ft | 416 kts | 95° |
| 2026-04-28 14:11 | 32.66651 | -95.88209 | 25156 ft | 419 kts | 95° |
| 2026-04-28 14:11 | 32.66412 | -95.84749 | 25616 ft | 422 kts | 95° |
| 2026-04-28 14:11 | 32.66171 | -95.81269 | 26065 ft | 425 kts | 95° |
| 2026-04-28 14:11 | 32.65926 | -95.77757 | 26498 ft | 428 kts | 95° |
| 2026-04-28 14:12 | 32.65679 | -95.74226 | 26918 ft | 431 kts | 95° |
| 2026-04-28 14:12 | 32.65429 | -95.70672 | 27326 ft | 434 kts | 95° |
| 2026-04-28 14:12 | 32.65177 | -95.67098 | 27721 ft | 436 kts | 95° |
| 2026-04-28 14:12 | 32.64921 | -95.63475 | 27064 ft | 448 kts | 96° |
| 2026-04-28 14:13 | 32.64653 | -95.59730 | 27168 ft | 462 kts | 96° |
| 2026-04-28 14:13 | 32.64377 | -95.55883 | 27275 ft | 475 kts | 96° |
| 2026-04-28 14:13 | 32.64093 | -95.51926 | 27361 ft | 488 kts | 96° |
| 2026-04-28 14:13 | 32.63800 | -95.47866 | 27460 ft | 499 kts | 96° |
| 2026-04-28 14:14 | 32.63501 | -95.43727 | 27609 ft | 508 kts | 96° |
| 2026-04-28 14:14 | 32.63198 | -95.39529 | 27939 ft | 512 kts | 96° |
| 2026-04-28 14:14 | 32.62892 | -95.35319 | 28369 ft | 513 kts | 96° |
| 2026-04-28 14:14 | 32.62584 | -95.31093 | 28757 ft | 516 kts | 96° |
| 2026-04-28 14:15 | 32.62271 | -95.26835 | 29102 ft | 519 kts | 96° |
| 2026-04-28 14:15 | 32.61954 | -95.22557 | 29456 ft | 522 kts | 96° |
| 2026-04-28 14:15 | 32.61634 | -95.18250 | 29805 ft | 525 kts | 96° |
| 2026-04-28 14:15 | 32.61311 | -95.13924 | 30138 ft | 528 kts | 96° |
| 2026-04-28 14:16 | 32.60986 | -95.09579 | 30431 ft | 530 kts | 96° |
| 2026-04-28 14:16 | 32.60657 | -95.05215 | 30740 ft | 532 kts | 96° |
| 2026-04-28 14:16 | 32.60326 | -95.00834 | 31039 ft | 534 kts | 96° |
| 2026-04-28 14:16 | 32.59992 | -94.96446 | 31339 ft | 535 kts | 96° |
| 2026-04-28 14:17 | 32.59656 | -94.92051 | 31703 ft | 535 kts | 96° |
| 2026-04-28 14:17 | 32.59321 | -94.87668 | 32110 ft | 534 kts | 96° |
| 2026-04-28 14:17 | 32.58984 | -94.83291 | 32519 ft | 532 kts | 96° |
| 2026-04-28 14:17 | 32.58644 | -94.78928 | 32879 ft | 532 kts | 97° |
| 2026-04-28 14:18 | 32.57963 | -94.74635 | 33153 ft | 530 kts | 109° |
| 2026-04-28 14:18 | 32.56850 | -94.70481 | 33519 ft | 528 kts | 111° |
| 2026-04-28 14:18 | 32.55640 | -94.66377 | 33892 ft | 526 kts | 112° |
| 2026-04-28 14:18 | 32.54403 | -94.62294 | 34184 ft | 527 kts | 112° |
| 2026-04-28 14:19 | 32.53173 | -94.58201 | 34414 ft | 528 kts | 112° |
| 2026-04-28 14:19 | 32.51960 | -94.54084 | 34621 ft | 530 kts | 111° |
| 2026-04-28 14:19 | 32.50764 | -94.49944 | 34852 ft | 532 kts | 111° |
| 2026-04-28 14:19 | 32.49580 | -94.45787 | 35084 ft | 533 kts | 111° |
| 2026-04-28 14:20 | 32.48404 | -94.41633 | 35329 ft | 534 kts | 110° |
| 2026-04-28 14:20 | 32.47222 | -94.37451 | 35565 ft | 535 kts | 110° |
| 2026-04-28 14:20 | 32.46040 | -94.33274 | 35784 ft | 536 kts | 110° |
| 2026-04-28 14:20 | 32.44851 | -94.29086 | 36016 ft | 537 kts | 110° |
| 2026-04-28 14:21 | 32.43656 | -94.24893 | 36224 ft | 538 kts | 110° |
| 2026-04-28 14:21 | 32.42458 | -94.20698 | 36427 ft | 539 kts | 110° |
| 2026-04-28 14:21 | 32.41253 | -94.16489 | 36660 ft | 540 kts | 110° |
| 2026-04-28 14:21 | 32.40048 | -94.12282 | 36895 ft | 540 kts | 110° |
| 2026-04-28 14:22 | 32.38839 | -94.08072 | 37001 ft | 543 kts | 110° |
| 2026-04-28 14:22 | 32.37621 | -94.03833 | 37001 ft | 545 kts | 110° |
| 2026-04-28 14:22 | 32.35181 | -93.95360 | 36998 ft | 542 kts | 110° |
| 2026-04-28 14:23 | 32.32757 | -93.86963 | 37001 ft | 538 kts | 110° |
| 2026-04-28 14:23 | 32.30336 | -93.78603 | 37010 ft | 537 kts | 110° |
| 2026-04-28 14:24 | 32.27917 | -93.70273 | 37008 ft | 536 kts | 110° |
| 2026-04-28 14:24 | 32.25492 | -93.61947 | 37009 ft | 535 kts | 110° |
| 2026-04-28 14:25 | 32.23066 | -93.53636 | 37018 ft | 535 kts | 110° |
| 2026-04-28 14:25 | 32.20632 | -93.45331 | 37023 ft | 535 kts | 110° |
| 2026-04-28 14:26 | 32.18172 | -93.37050 | 37030 ft | 535 kts | 110° |
| 2026-04-28 14:26 | 32.15701 | -93.28778 | 37030 ft | 534 kts | 110° |
| 2026-04-28 14:27 | 32.13232 | -93.20519 | 37028 ft | 533 kts | 110° |
| 2026-04-28 14:27 | 32.10763 | -93.12275 | 37034 ft | 532 kts | 110° |
| 2026-04-28 14:28 | 32.08295 | -93.04055 | 37044 ft | 531 kts | 110° |
| 2026-04-28 14:28 | 32.05824 | -92.95848 | 37036 ft | 530 kts | 110° |
| 2026-04-28 14:29 | 32.03754 | -92.88992 | 37045 ft | 530 kts | 110° |
| 2026-04-28 14:29 | 32.01282 | -92.80817 | 37034 ft | 529 kts | 110° |
| 2026-04-28 14:30 | 31.98713 | -92.72702 | 37030 ft | 529 kts | 117° |
| 2026-04-28 14:30 | 31.94686 | -92.65536 | 37059 ft | 525 kts | 135° |
| 2026-04-28 14:31 | 31.92090 | -92.62521 | 37048 ft | 523 kts | 146° |
| 2026-04-28 14:31 | 31.89253 | -92.59834 | 37064 ft | 526 kts | 147° |
| 2026-04-28 14:31 | 31.83462 | -92.54512 | 37049 ft | 530 kts | 147° |
| 2026-04-28 14:32 | 31.77650 | -92.49127 | 37047 ft | 533 kts | 147° |
| 2026-04-28 14:32 | 31.71905 | -92.43724 | 37036 ft | 524 kts | 146° |
| 2026-04-28 14:33 | 31.66231 | -92.38368 | 37051 ft | 523 kts | 147° |
| 2026-04-28 14:33 | 31.60556 | -92.33030 | 37059 ft | 523 kts | 146° |
| 2026-04-28 14:34 | 31.52062 | -92.25062 | 37053 ft | 524 kts | 146° |
| 2026-04-28 14:35 | 31.46322 | -92.19689 | 37053 ft | 525 kts | 146° |
| 2026-04-28 14:35 | 31.40611 | -92.14351 | 37055 ft | 526 kts | 146° |
| 2026-04-28 14:36 | 31.34862 | -92.08988 | 36422 ft | 532 kts | 146° |
| 2026-04-28 14:36 | 31.31978 | -92.06300 | 35866 ft | 529 kts | 146° |
| 2026-04-28 14:36 | 31.29096 | -92.03614 | 35241 ft | 529 kts | 146° |
| 2026-04-28 14:36 | 31.26218 | -92.00935 | 34483 ft | 531 kts | 146° |
| 2026-04-28 14:37 | 31.23323 | -91.98243 | 33762 ft | 530 kts | 146° |
| 2026-04-28 14:37 | 31.20452 | -91.95573 | 33233 ft | 524 kts | 146° |
| 2026-04-28 14:37 | 31.17610 | -91.92931 | 32304 ft | 526 kts | 146° |
| 2026-04-28 14:37 | 31.14747 | -91.90277 | 31679 ft | 523 kts | 146° |
| 2026-04-28 14:38 | 31.11904 | -91.87642 | 31043 ft | 520 kts | 146° |
| 2026-04-28 14:38 | 31.09086 | -91.85031 | 30512 ft | 515 kts | 146° |
| 2026-04-28 14:38 | 31.06296 | -91.82447 | 29947 ft | 510 kts | 146° |
| 2026-04-28 14:38 | 31.03535 | -91.79892 | 29337 ft | 504 kts | 146° |
| 2026-04-28 14:39 | 31.00805 | -91.77369 | 28768 ft | 498 kts | 146° |
| 2026-04-28 14:39 | 30.98108 | -91.74878 | 28232 ft | 491 kts | 146° |
| 2026-04-28 14:39 | 30.95449 | -91.72424 | 27686 ft | 485 kts | 146° |
| 2026-04-28 14:39 | 30.92855 | -91.70032 | 27161 ft | 479 kts | 146° |
| 2026-04-28 14:40 | 30.90257 | -91.67640 | 26601 ft | 474 kts | 146° |
| 2026-04-28 14:40 | 30.88518 | -91.66039 | 26238 ft | 470 kts | 146° |
| 2026-04-28 14:40 | 30.85101 | -91.62896 | 25469 ft | 465 kts | 145° |
| 2026-04-28 14:40 | 30.82607 | -91.60604 | 24952 ft | 460 kts | 145° |
| 2026-04-28 14:41 | 30.80111 | -91.58311 | 24426 ft | 455 kts | 145° |
| 2026-04-28 14:41 | 30.77639 | -91.56041 | 23902 ft | 451 kts | 145° |
| 2026-04-28 14:41 | 30.75187 | -91.53792 | 23326 ft | 446 kts | 145° |
| 2026-04-28 14:41 | 30.72765 | -91.51571 | 22762 ft | 441 kts | 145° |
| 2026-04-28 14:42 | 30.70371 | -91.49377 | 22228 ft | 436 kts | 145° |
| 2026-04-28 14:42 | 30.68005 | -91.47210 | 21716 ft | 430 kts | 145° |
| 2026-04-28 14:42 | 30.65672 | -91.45075 | 21210 ft | 425 kts | 145° |
| 2026-04-28 14:42 | 30.63360 | -91.42961 | 20724 ft | 420 kts | 145° |
| 2026-04-28 14:43 | 30.61072 | -91.40870 | 20236 ft | 416 kts | 145° |
| 2026-04-28 14:43 | 30.58810 | -91.38804 | 19751 ft | 412 kts | 145° |
| 2026-04-28 14:43 | 30.56564 | -91.36753 | 19270 ft | 409 kts | 144° |
| 2026-04-28 14:43 | 30.54339 | -91.34723 | 18797 ft | 406 kts | 144° |
| 2026-04-28 14:44 | 30.52127 | -91.32706 | 18287 ft | 403 kts | 144° |
| 2026-04-28 14:44 | 30.49929 | -91.30703 | 17753 ft | 400 kts | 144° |
| 2026-04-28 14:44 | 30.47750 | -91.28715 | 17255 ft | 397 kts | 144° |
| 2026-04-28 14:44 | 30.45608 | -91.26731 | 16777 ft | 393 kts | 144° |
| 2026-04-28 14:45 | 30.43485 | -91.24751 | 16299 ft | 390 kts | 144° |
| 2026-04-28 14:45 | 30.41385 | -91.22789 | 15833 ft | 386 kts | 144° |
| 2026-04-28 14:45 | 30.39300 | -91.20844 | 15361 ft | 383 kts | 144° |
| 2026-04-28 14:45 | 30.37233 | -91.18918 | 14903 ft | 380 kts | 144° |
| 2026-04-28 14:46 | 30.35179 | -91.17007 | 14433 ft | 378 kts | 143° |
| 2026-04-28 14:46 | 30.33133 | -91.15106 | 13948 ft | 376 kts | 144° |
| 2026-04-28 14:46 | 30.31097 | -91.13216 | 13448 ft | 373 kts | 144° |
| 2026-04-28 14:46 | 30.29080 | -91.11344 | 12967 ft | 370 kts | 144° |
| 2026-04-28 14:47 | 30.27080 | -91.09488 | 12493 ft | 367 kts | 144° |
| 2026-04-28 14:47 | 30.25097 | -91.07651 | 12034 ft | 364 kts | 144° |
| 2026-04-28 14:47 | 30.23128 | -91.05826 | 11578 ft | 361 kts | 144° |
| 2026-04-28 14:47 | 30.21175 | -91.04017 | 11125 ft | 358 kts | 144° |
| 2026-04-28 14:48 | 30.19237 | -91.02223 | 10693 ft | 356 kts | 144° |
| 2026-04-28 14:48 | 30.17341 | -91.00468 | 10522 ft | 344 kts | 144° |
| 2026-04-28 14:48 | 30.15499 | -90.98764 | 10373 ft | 334 kts | 144° |
| 2026-04-28 14:48 | 30.13713 | -90.97113 | 10224 ft | 324 kts | 144° |
| 2026-04-28 14:49 | 30.12208 | -90.95220 | 10061 ft | 320 kts | 123° |
| 2026-04-28 14:49 | 30.11435 | -90.92851 | 9936 ft | 315 kts | 101° |
| 2026-04-28 14:49 | 30.11199 | -90.90385 | 9807 ft | 306 kts | 97° |
| 2026-04-28 14:49 | 30.11017 | -90.87889 | 9187 ft | 316 kts | 96° |
| 2026-04-28 14:50 | 30.10837 | -90.85329 | 8587 ft | 324 kts | 96° |
| 2026-04-28 14:50 | 30.10648 | -90.82719 | 7998 ft | 326 kts | 96° |
| 2026-04-28 14:50 | 30.10453 | -90.80117 | 7392 ft | 323 kts | 96° |
| 2026-04-28 14:50 | 30.10254 | -90.77548 | 6805 ft | 320 kts | 97° |
| 2026-04-28 14:51 | 30.10052 | -90.75003 | 6213 ft | 317 kts | 97° |
| 2026-04-28 14:51 | 30.09850 | -90.72477 | 5656 ft | 313 kts | 97° |
| 2026-04-28 14:51 | 30.09654 | -90.70062 | 5489 ft | 295 kts | 98° |
| 2026-04-28 14:51 | 30.09256 | -90.67797 | 5285 ft | 279 kts | 108° |
| 2026-04-28 14:52 | 30.08727 | -90.65709 | 5168 ft | 263 kts | 110° |
| 2026-04-28 14:52 | 30.08217 | -90.63738 | 5045 ft | 250 kts | 109° |
| 2026-04-28 14:52 | 30.07753 | -90.61862 | 4955 ft | 237 kts | 109° |
| 2026-04-28 14:52 | 30.07316 | -90.60062 | 4905 ft | 229 kts | 109° |
| 2026-04-28 14:53 | 30.06898 | -90.58322 | 4716 ft | 221 kts | 109° |
| 2026-04-28 14:53 | 30.06497 | -90.56645 | 4510 ft | 214 kts | 109° |
| 2026-04-28 14:53 | 30.06112 | -90.55005 | 4272 ft | 210 kts | 109° |
| 2026-04-28 14:53 | 30.05735 | -90.53386 | 4021 ft | 207 kts | 109° |
| 2026-04-28 14:54 | 30.05357 | -90.51801 | 3772 ft | 203 kts | 110° |
| 2026-04-28 14:54 | 30.04984 | -90.50251 | 3524 ft | 199 kts | 110° |
| 2026-04-28 14:54 | 30.04618 | -90.48731 | 3318 ft | 194 kts | 111° |
| 2026-04-28 14:54 | 30.04259 | -90.47249 | 3076 ft | 189 kts | 111° |
| 2026-04-28 14:55 | 30.03912 | -90.45813 | 2851 ft | 183 kts | 110° |
| 2026-04-28 14:55 | 30.03578 | -90.44423 | 2628 ft | 176 kts | 110° |
| 2026-04-28 14:55 | 30.03245 | -90.43061 | 2404 ft | 176 kts | 111° |
| 2026-04-28 14:55 | 30.02933 | -90.41746 | 2194 ft | 165 kts | 109° |
| 2026-04-28 14:56 | 30.02639 | -90.40512 | 2017 ft | 157 kts | 111° |
| 2026-04-28 14:56 | 30.02344 | -90.39314 | 1807 ft | 155 kts | 110° |
| 2026-04-28 14:56 | 30.02051 | -90.38107 | 1638 ft | 159 kts | 110° |
| 2026-04-28 14:56 | 30.01754 | -90.36875 | 1432 ft | 161 kts | 109° |
| 2026-04-28 14:57 | 30.01460 | -90.35652 | 1279 ft | 158 kts | 111° |
| 2026-04-28 14:57 | 30.01262 | -90.34829 | 1156 ft | 162 kts | 110° |
| 2026-04-28 14:57 | 30.00873 | -90.33203 | 909 ft | 151 kts | 111° |
| 2026-04-28 14:57 | 30.00607 | -90.32105 | 701 ft | 137 kts | 109° |
| 2026-04-28 14:58 | 30.00355 | -90.31055 | 523 ft | 132 kts | 106° |
| 2026-04-28 14:58 | 30.00128 | -90.30021 | 337 ft | 134 kts | 105° |
| 2026-04-28 14:58 | 29.99882 | -90.28998 | 255 ft | 131 kts | 112° |
| 2026-04-28 14:58 | 29.99639 | -90.27996 | 82 ft | 125 kts | 114° |
| 2026-04-28 14:59 | 29.99406 | -90.27167 | 7 ft | 92 kts | 101° |
| 2026-04-28 14:59 | 29.99306 | -90.26694 | 9 ft | 29 kts | 105° |
| 2026-04-28 14:59 | 29.99276 | -90.26563 | 8 ft | 23 kts | 105° |
| 2026-04-28 14:59 | 29.99188 | -90.26506 | 7 ft | 19 kts | 182° |
| 2026-04-28 15:00 | 29.99110 | -90.26397 | 7 ft | 19 kts | 106° |
| 2026-04-28 15:00 | 29.99073 | -90.26251 | 6 ft | 19 kts | 106° |
| 2026-04-28 15:00 | 29.99040 | -90.26111 | 7 ft | 18 kts | 105° |
| 2026-04-28 15:00 | 29.99000 | -90.26018 | 7 ft | 7 kts | 151° |
| 2026-04-28 15:01 | 29.98928 | -90.25988 | 8 ft | 13 kts | 160° |
| 2026-04-28 15:01 | 29.98857 | -90.25957 | 10 ft | 7 kts | 158° |
| 2026-04-28 15:01 | 29.98847 | -90.25952 | 10 ft | 0 kts | 158° |